sensor_id;sensor_type;location;lat;lon;timestamp;temperature;humidity
14049;DHT22;7099;53.922;10.728;2023-09-19T00:01:37;18.10;88.40
14049;DHT22;7099;53.922;10.728;2023-09-19T00:05:43;18.10;88.50
14049;DHT22;7099;53.922;10.728;2023-09-19T00:09:50;18.00;88.60
14049;DHT22;7099;53.922;10.728;2023-09-19T00:13:55;18.00;88.60
14049;DHT22;7099;53.922;10.728;2023-09-19T00:18:02;18.00;88.60
14049;DHT22;7099;53.922;10.728;2023-09-19T00:22:10;18.00;88.60
14049;DHT22;7099;53.922;10.728;2023-09-19T00:26:18;17.90;88.60
14049;DHT22;7099;53.922;10.728;2023-09-19T00:30:24;17.90;88.70
14049;DHT22;7099;53.922;10.728;2023-09-19T00:34:31;18.20;88.00
14049;DHT22;7099;53.922;10.728;2023-09-19T00:38:39;18.50;87.20
14049;DHT22;7099;53.922;10.728;2023-09-19T00:42:46;18.60;87.10
14049;DHT22;7099;53.922;10.728;2023-09-19T00:46:52;18.60;86.50
14049;DHT22;7099;53.922;10.728;2023-09-19T00:51:02;18.70;86.60
14049;DHT22;7099;53.922;10.728;2023-09-19T00:55:10;18.60;86.40
14049;DHT22;7099;53.922;10.728;2023-09-19T00:59:19;18.60;86.40
14049;DHT22;7099;53.922;10.728;2023-09-19T01:03:27;18.60;86.50
14049;DHT22;7099;53.922;10.728;2023-09-19T01:07:33;18.60;86.50
14049;DHT22;7099;53.922;10.728;2023-09-19T01:11:43;18.60;86.40
14049;DHT22;7099;53.922;10.728;2023-09-19T01:15:59;18.60;86.50
14049;DHT22;7099;53.922;10.728;2023-09-19T01:29:34;18.60;86.10
14049;DHT22;7099;53.922;10.728;2023-09-19T01:33:57;18.60;86.20
14049;DHT22;7099;53.922;10.728;2023-09-19T01:38:06;18.60;86.20
14049;DHT22;7099;53.922;10.728;2023-09-19T01:42:41;18.50;86.20
14049;DHT22;7099;53.922;10.728;2023-09-19T01:46:50;18.50;86.50
14049;DHT22;7099;53.922;10.728;2023-09-19T01:51:00;18.50;86.60
14049;DHT22;7099;53.922;10.728;2023-09-19T01:55:09;18.40;87.30
14049;DHT22;7099;53.922;10.728;2023-09-19T01:59:21;18.50;86.70
14049;DHT22;7099;53.922;10.728;2023-09-19T02:03:33;18.40;86.70
14049;DHT22;7099;53.922;10.728;2023-09-19T02:07:40;18.50;86.50
14049;DHT22;7099;53.922;10.728;2023-09-19T02:11:46;18.40;86.50
14049;DHT22;7099;53.922;10.728;2023-09-19T02:15:51;18.40;86.60
14049;DHT22;7099;53.922;10.728;2023-09-19T02:19:57;18.40;86.60
14049;DHT22;7099;53.922;10.728;2023-09-19T02:24:04;18.40;86.70
14049;DHT22;7099;53.922;10.728;2023-09-19T02:28:10;18.40;86.60
14049;DHT22;7099;53.922;10.728;2023-09-19T02:32:17;18.30;86.60
14049;DHT22;7099;53.922;10.728;2023-09-19T02:36:23;18.30;86.70
14049;DHT22;7099;53.922;10.728;2023-09-19T02:40:29;18.30;86.70
14049;DHT22;7099;53.922;10.728;2023-09-19T02:44:34;18.30;86.70
14049;DHT22;7099;53.922;10.728;2023-09-19T02:48:40;18.20;86.60
14049;DHT22;7099;53.922;10.728;2023-09-19T02:52:47;18.20;86.80
14049;DHT22;7099;53.922;10.728;2023-09-19T02:56:56;18.20;86.90
14049;DHT22;7099;53.922;10.728;2023-09-19T03:01:10;18.20;86.70
14049;DHT22;7099;53.922;10.728;2023-09-19T03:05:21;18.10;86.40
14049;DHT22;7099;53.922;10.728;2023-09-19T03:09:28;18.10;86.30
14049;DHT22;7099;53.922;10.728;2023-09-19T03:13:34;18.00;85.90
14049;DHT22;7099;53.922;10.728;2023-09-19T03:17:45;18.00;85.60
14049;DHT22;7099;53.922;10.728;2023-09-19T03:21:52;18.00;85.50
14049;DHT22;7099;53.922;10.728;2023-09-19T03:25:58;17.90;85.20
14049;DHT22;7099;53.922;10.728;2023-09-19T03:30:05;17.90;84.90
14049;DHT22;7099;53.922;10.728;2023-09-19T03:34:14;17.80;84.50
14049;DHT22;7099;53.922;10.728;2023-09-19T03:38:20;17.80;84.40
14049;DHT22;7099;53.922;10.728;2023-09-19T03:42:26;17.80;84.50
14049;DHT22;7099;53.922;10.728;2023-09-19T03:46:32;17.30;85.70
14049;DHT22;7099;53.922;10.728;2023-09-19T03:50:38;17.50;85.60
14049;DHT22;7099;53.922;10.728;2023-09-19T03:54:44;17.60;85.10
14049;DHT22;7099;53.922;10.728;2023-09-19T03:58:49;17.60;84.90
14049;DHT22;7099;53.922;10.728;2023-09-19T04:02:55;17.60;85.00
14049;DHT22;7099;53.922;10.728;2023-09-19T04:07:02;17.60;85.20
14049;DHT22;7099;53.922;10.728;2023-09-19T04:11:07;17.70;84.70
14049;DHT22;7099;53.922;10.728;2023-09-19T04:15:13;17.70;84.40
14049;DHT22;7099;53.922;10.728;2023-09-19T04:19:19;17.70;83.80
14049;DHT22;7099;53.922;10.728;2023-09-19T04:23:27;17.60;83.40
14049;DHT22;7099;53.922;10.728;2023-09-19T04:27:33;17.60;83.20
14049;DHT22;7099;53.922;10.728;2023-09-19T04:31:39;17.30;84.00
14049;DHT22;7099;53.922;10.728;2023-09-19T04:35:45;17.00;84.80
14049;DHT22;7099;53.922;10.728;2023-09-19T04:39:54;16.90;85.10
14049;DHT22;7099;53.922;10.728;2023-09-19T04:44:00;16.80;85.20
14049;DHT22;7099;53.922;10.728;2023-09-19T04:48:06;16.70;85.20
14049;DHT22;7099;53.922;10.728;2023-09-19T04:52:12;16.70;85.20
14049;DHT22;7099;53.922;10.728;2023-09-19T04:56:20;16.60;85.10
14049;DHT22;7099;53.922;10.728;2023-09-19T05:00:26;16.60;85.00
14049;DHT22;7099;53.922;10.728;2023-09-19T05:04:36;16.50;84.60
14049;DHT22;7099;53.922;10.728;2023-09-19T05:08:42;16.40;85.10
14049;DHT22;7099;53.922;10.728;2023-09-19T05:12:48;16.40;84.10
14049;DHT22;7099;53.922;10.728;2023-09-19T05:16:57;16.30;84.00
14049;DHT22;7099;53.922;10.728;2023-09-19T05:21:03;16.30;84.10
14049;DHT22;7099;53.922;10.728;2023-09-19T05:25:12;16.30;84.00
14049;DHT22;7099;53.922;10.728;2023-09-19T05:29:21;16.30;84.10
14049;DHT22;7099;53.922;10.728;2023-09-19T05:33:26;16.30;84.00
14049;DHT22;7099;53.922;10.728;2023-09-19T05:37:32;16.30;83.80
14049;DHT22;7099;53.922;10.728;2023-09-19T05:41:38;16.20;83.80
14049;DHT22;7099;53.922;10.728;2023-09-19T05:45:45;16.60;82.20
14049;DHT22;7099;53.922;10.728;2023-09-19T05:49:50;16.70;81.80
14049;DHT22;7099;53.922;10.728;2023-09-19T05:53:57;16.80;81.00
14049;DHT22;7099;53.922;10.728;2023-09-19T05:58:02;16.90;80.50
14049;DHT22;7099;53.922;10.728;2023-09-19T06:02:08;16.80;80.50
14049;DHT22;7099;53.922;10.728;2023-09-19T06:06:14;16.90;79.90
14049;DHT22;7099;53.922;10.728;2023-09-19T06:10:20;16.90;79.80
14049;DHT22;7099;53.922;10.728;2023-09-19T06:14:28;16.90;79.60
14049;DHT22;7099;53.922;10.728;2023-09-19T06:18:33;16.90;79.30
14049;DHT22;7099;53.922;10.728;2023-09-19T06:22:39;16.90;79.60
14049;DHT22;7099;53.922;10.728;2023-09-19T06:26:46;17.00;79.40
14049;DHT22;7099;53.922;10.728;2023-09-19T06:30:52;16.90;79.50
14049;DHT22;7099;53.922;10.728;2023-09-19T06:34:58;17.00;79.20
14049;DHT22;7099;53.922;10.728;2023-09-19T06:39:04;17.00;79.20
14049;DHT22;7099;53.922;10.728;2023-09-19T06:43:12;17.00;79.00
14049;DHT22;7099;53.922;10.728;2023-09-19T06:47:19;17.10;79.30
14049;DHT22;7099;53.922;10.728;2023-09-19T06:51:25;17.10;79.00
14049;DHT22;7099;53.922;10.728;2023-09-19T06:55:30;17.20;78.60
14049;DHT22;7099;53.922;10.728;2023-09-19T06:59:38;17.20;78.30
14049;DHT22;7099;53.922;10.728;2023-09-19T07:03:43;17.20;78.20
14049;DHT22;7099;53.922;10.728;2023-09-19T07:07:50;17.20;77.60
14049;DHT22;7099;53.922;10.728;2023-09-19T07:11:56;17.30;77.70
14049;DHT22;7099;53.922;10.728;2023-09-19T07:16:01;17.40;77.60
14049;DHT22;7099;53.922;10.728;2023-09-19T07:20:07;17.50;77.70
14049;DHT22;7099;53.922;10.728;2023-09-19T07:24:13;17.60;77.00
14049;DHT22;7099;53.922;10.728;2023-09-19T07:28:19;17.60;76.80
14049;DHT22;7099;53.922;10.728;2023-09-19T07:32:24;17.60;76.50
14049;DHT22;7099;53.922;10.728;2023-09-19T07:36:30;17.60;76.00
14049;DHT22;7099;53.922;10.728;2023-09-19T07:40:35;17.70;76.30
14049;DHT22;7099;53.922;10.728;2023-09-19T07:44:41;17.70;76.90
14049;DHT22;7099;53.922;10.728;2023-09-19T07:48:47;17.80;76.10
14049;DHT22;7099;53.922;10.728;2023-09-19T07:52:54;17.80;76.50
14049;DHT22;7099;53.922;10.728;2023-09-19T07:56:59;17.80;76.20
14049;DHT22;7099;53.922;10.728;2023-09-19T08:01:05;17.90;77.60
14049;DHT22;7099;53.922;10.728;2023-09-19T08:05:12;18.00;76.20
14049;DHT22;7099;53.922;10.728;2023-09-19T08:09:20;18.00;75.90
14049;DHT22;7099;53.922;10.728;2023-09-19T08:13:29;18.10;75.80
14049;DHT22;7099;53.922;10.728;2023-09-19T08:17:36;18.10;76.40
14049;DHT22;7099;53.922;10.728;2023-09-19T08:21:42;18.10;76.40
14049;DHT22;7099;53.922;10.728;2023-09-19T08:25:55;17.80;77.70
14049;DHT22;7099;53.922;10.728;2023-09-19T08:30:01;17.70;78.20
14049;DHT22;7099;53.922;10.728;2023-09-19T08:34:08;17.60;78.80
14049;DHT22;7099;53.922;10.728;2023-09-19T08:38:13;17.60;78.80
14049;DHT22;7099;53.922;10.728;2023-09-19T08:42:19;17.60;78.90
14049;DHT22;7099;53.922;10.728;2023-09-19T08:46:26;17.60;79.20
14049;DHT22;7099;53.922;10.728;2023-09-19T08:50:33;17.60;79.30
14049;DHT22;7099;53.922;10.728;2023-09-19T08:54:45;17.70;78.70
14049;DHT22;7099;53.922;10.728;2023-09-19T08:59:05;17.70;78.20
14049;DHT22;7099;53.922;10.728;2023-09-19T09:03:14;17.80;78.10
14049;DHT22;7099;53.922;10.728;2023-09-19T09:07:24;17.80;77.40
14049;DHT22;7099;53.922;10.728;2023-09-19T09:11:29;17.80;76.70
14049;DHT22;7099;53.922;10.728;2023-09-19T09:15:38;17.80;76.50
14049;DHT22;7099;53.922;10.728;2023-09-19T09:19:43;17.80;76.50
14049;DHT22;7099;53.922;10.728;2023-09-19T09:23:49;17.80;76.20
14049;DHT22;7099;53.922;10.728;2023-09-19T09:28:00;17.70;76.20
14049;DHT22;7099;53.922;10.728;2023-09-19T09:36:34;17.80;76.90
14049;DHT22;7099;53.922;10.728;2023-09-19T09:40:50;17.70;77.20
14049;DHT22;7099;53.922;10.728;2023-09-19T09:45:19;17.70;77.50
14049;DHT22;7099;53.922;10.728;2023-09-19T09:49:43;17.80;78.30
14049;DHT22;7099;53.922;10.728;2023-09-19T09:54:12;17.80;78.20
14049;DHT22;7099;53.922;10.728;2023-09-19T09:58:19;17.90;77.80
14049;DHT22;7099;53.922;10.728;2023-09-19T10:02:29;17.90;77.50
14049;DHT22;7099;53.922;10.728;2023-09-19T10:06:41;18.00;77.40
14049;DHT22;7099;53.922;10.728;2023-09-19T10:10:56;18.10;77.10
14049;DHT22;7099;53.922;10.728;2023-09-19T10:15:10;18.10;76.80
14049;DHT22;7099;53.922;10.728;2023-09-19T10:19:20;18.10;76.40
14049;DHT22;7099;53.922;10.728;2023-09-19T10:23:30;18.20;76.30
14049;DHT22;7099;53.922;10.728;2023-09-19T10:27:39;18.30;75.40
14049;DHT22;7099;53.922;10.728;2023-09-19T10:31:46;18.40;75.50
14049;DHT22;7099;53.922;10.728;2023-09-19T10:35:54;18.50;75.00
14049;DHT22;7099;53.922;10.728;2023-09-19T10:40:01;18.60;74.20
14049;DHT22;7099;53.922;10.728;2023-09-19T10:44:11;18.70;74.80
14049;DHT22;7099;53.922;10.728;2023-09-19T10:48:17;18.80;74.20
14049;DHT22;7099;53.922;10.728;2023-09-19T10:52:31;18.90;73.60
14049;DHT22;7099;53.922;10.728;2023-09-19T10:56:43;19.00;73.20
14049;DHT22;7099;53.922;10.728;2023-09-19T11:00:54;19.10;72.90
14049;DHT22;7099;53.922;10.728;2023-09-19T11:05:10;19.20;71.60
14049;DHT22;7099;53.922;10.728;2023-09-19T11:09:16;19.20;71.60
14049;DHT22;7099;53.922;10.728;2023-09-19T11:13:27;19.30;71.20
14049;DHT22;7099;53.922;10.728;2023-09-19T11:17:36;19.30;69.90
14049;DHT22;7099;53.922;10.728;2023-09-19T11:21:53;19.30;69.40
14049;DHT22;7099;53.922;10.728;2023-09-19T11:25:59;19.40;70.00
14049;DHT22;7099;53.922;10.728;2023-09-19T11:42:50;19.50;67.80
14049;DHT22;7099;53.922;10.728;2023-09-19T11:46:55;19.50;68.60
14049;DHT22;7099;53.922;10.728;2023-09-19T11:51:09;19.50;68.90
14049;DHT22;7099;53.922;10.728;2023-09-19T11:55:20;19.60;68.60
14049;DHT22;7099;53.922;10.728;2023-09-19T11:59:26;19.60;68.50
14049;DHT22;7099;53.922;10.728;2023-09-19T12:03:34;19.60;68.80
14049;DHT22;7099;53.922;10.728;2023-09-19T12:07:44;19.70;68.90
14049;DHT22;7099;53.922;10.728;2023-09-19T12:11:52;19.80;68.40
14049;DHT22;7099;53.922;10.728;2023-09-19T12:15:58;19.70;67.40
14049;DHT22;7099;53.922;10.728;2023-09-19T12:20:05;19.70;68.40
14049;DHT22;7099;53.922;10.728;2023-09-19T12:24:21;19.70;67.00
14049;DHT22;7099;53.922;10.728;2023-09-19T12:28:27;19.70;68.10
14049;DHT22;7099;53.922;10.728;2023-09-19T12:32:39;19.70;70.80
14049;DHT22;7099;53.922;10.728;2023-09-19T12:36:46;19.80;68.60
14049;DHT22;7099;53.922;10.728;2023-09-19T12:40:52;19.90;69.40
14049;DHT22;7099;53.922;10.728;2023-09-19T12:44:57;19.90;67.20
14049;DHT22;7099;53.922;10.728;2023-09-19T12:49:18;19.90;67.30
14049;DHT22;7099;53.922;10.728;2023-09-19T12:53:26;19.90;68.20
14049;DHT22;7099;53.922;10.728;2023-09-19T12:57:35;19.90;67.60
14049;DHT22;7099;53.922;10.728;2023-09-19T13:01:40;20.00;65.60
14049;DHT22;7099;53.922;10.728;2023-09-19T13:05:57;20.00;66.50
14049;DHT22;7099;53.922;10.728;2023-09-19T13:10:05;20.10;66.70
14049;DHT22;7099;53.922;10.728;2023-09-19T13:14:15;20.00;64.80
14049;DHT22;7099;53.922;10.728;2023-09-19T13:18:21;20.00;64.20
14049;DHT22;7099;53.922;10.728;2023-09-19T13:26:48;20.10;66.90
14049;DHT22;7099;53.922;10.728;2023-09-19T13:30:53;20.10;65.80
14049;DHT22;7099;53.922;10.728;2023-09-19T13:34:59;20.20;66.20
14049;DHT22;7099;53.922;10.728;2023-09-19T13:39:05;20.20;67.80
14049;DHT22;7099;53.922;10.728;2023-09-19T13:43:11;20.30;65.70
14049;DHT22;7099;53.922;10.728;2023-09-19T13:47:17;20.40;63.50
14049;DHT22;7099;53.922;10.728;2023-09-19T13:51:30;20.40;64.80
14049;DHT22;7099;53.922;10.728;2023-09-19T13:55:36;20.50;66.90
14049;DHT22;7099;53.922;10.728;2023-09-19T13:59:42;21.00;64.90
14049;DHT22;7099;53.922;10.728;2023-09-19T14:03:48;20.90;65.40
14049;DHT22;7099;53.922;10.728;2023-09-19T14:07:56;20.80;65.80
14049;DHT22;7099;53.922;10.728;2023-09-19T14:12:02;20.70;65.90
14049;DHT22;7099;53.922;10.728;2023-09-19T14:16:08;20.60;64.30
14049;DHT22;7099;53.922;10.728;2023-09-19T14:20:13;20.70;65.40
14049;DHT22;7099;53.922;10.728;2023-09-19T14:24:20;20.90;65.50
14049;DHT22;7099;53.922;10.728;2023-09-19T14:28:27;21.00;64.60
14049;DHT22;7099;53.922;10.728;2023-09-19T14:32:34;21.20;65.90
14049;DHT22;7099;53.922;10.728;2023-09-19T14:36:40;21.40;64.80
14049;DHT22;7099;53.922;10.728;2023-09-19T14:40:45;21.40;63.00
14049;DHT22;7099;53.922;10.728;2023-09-19T14:44:51;21.30;63.10
14049;DHT22;7099;53.922;10.728;2023-09-19T14:48:56;21.20;62.40
14049;DHT22;7099;53.922;10.728;2023-09-19T14:53:06;21.00;63.90
14049;DHT22;7099;53.922;10.728;2023-09-19T14:57:15;20.90;63.00
14049;DHT22;7099;53.922;10.728;2023-09-19T15:01:21;20.80;63.20
14049;DHT22;7099;53.922;10.728;2023-09-19T15:05:27;20.70;63.50
14049;DHT22;7099;53.922;10.728;2023-09-19T15:09:35;20.60;63.90
14049;DHT22;7099;53.922;10.728;2023-09-19T15:13:41;20.50;63.60
14049;DHT22;7099;53.922;10.728;2023-09-19T15:17:47;20.40;63.10
14049;DHT22;7099;53.922;10.728;2023-09-19T15:21:53;20.40;64.20
14049;DHT22;7099;53.922;10.728;2023-09-19T15:25:58;20.40;64.50
14049;DHT22;7099;53.922;10.728;2023-09-19T15:30:05;20.40;64.10
14049;DHT22;7099;53.922;10.728;2023-09-19T15:34:11;20.30;65.10
14049;DHT22;7099;53.922;10.728;2023-09-19T15:38:19;20.30;64.70
14049;DHT22;7099;53.922;10.728;2023-09-19T15:42:25;20.20;65.20
14049;DHT22;7099;53.922;10.728;2023-09-19T15:46:33;20.20;64.80
14049;DHT22;7099;53.922;10.728;2023-09-19T15:50:40;20.10;64.80
14049;DHT22;7099;53.922;10.728;2023-09-19T15:54:47;20.00;66.10
14049;DHT22;7099;53.922;10.728;2023-09-19T15:58:54;20.00;66.20
14049;DHT22;7099;53.922;10.728;2023-09-19T16:03:01;20.00;66.80
14049;DHT22;7099;53.922;10.728;2023-09-19T16:07:07;19.90;67.00
14049;DHT22;7099;53.922;10.728;2023-09-19T16:11:14;19.90;67.70
14049;DHT22;7099;53.922;10.728;2023-09-19T16:15:20;19.80;67.50
14049;DHT22;7099;53.922;10.728;2023-09-19T16:19:25;19.80;67.80
14049;DHT22;7099;53.922;10.728;2023-09-19T16:23:31;19.80;68.00
14049;DHT22;7099;53.922;10.728;2023-09-19T16:27:37;19.70;68.80
14049;DHT22;7099;53.922;10.728;2023-09-19T16:31:42;19.70;68.60
14049;DHT22;7099;53.922;10.728;2023-09-19T16:35:48;19.60;68.60
14049;DHT22;7099;53.922;10.728;2023-09-19T16:39:53;19.60;69.00
14049;DHT22;7099;53.922;10.728;2023-09-19T16:43:59;19.60;69.10
14049;DHT22;7099;53.922;10.728;2023-09-19T16:48:05;19.60;69.30
14049;DHT22;7099;53.922;10.728;2023-09-19T16:52:11;19.50;69.50
14049;DHT22;7099;53.922;10.728;2023-09-19T16:56:17;19.50;69.50
14049;DHT22;7099;53.922;10.728;2023-09-19T17:00:24;19.50;69.50
14049;DHT22;7099;53.922;10.728;2023-09-19T17:04:30;19.50;69.80
14049;DHT22;7099;53.922;10.728;2023-09-19T17:08:37;19.50;70.40
14049;DHT22;7099;53.922;10.728;2023-09-19T17:12:44;19.40;70.00
14049;DHT22;7099;53.922;10.728;2023-09-19T17:16:49;19.40;70.00
14049;DHT22;7099;53.922;10.728;2023-09-19T17:20:55;19.40;70.20
14049;DHT22;7099;53.922;10.728;2023-09-19T17:25:01;19.40;70.20
14049;DHT22;7099;53.922;10.728;2023-09-19T17:29:06;19.30;70.30
14049;DHT22;7099;53.922;10.728;2023-09-19T17:33:12;19.30;70.30
14049;DHT22;7099;53.922;10.728;2023-09-19T17:37:17;19.30;70.30
14049;DHT22;7099;53.922;10.728;2023-09-19T17:41:24;19.30;70.20
14049;DHT22;7099;53.922;10.728;2023-09-19T17:45:31;19.30;70.40
14049;DHT22;7099;53.922;10.728;2023-09-19T17:49:36;19.30;70.20
14049;DHT22;7099;53.922;10.728;2023-09-19T17:53:42;19.30;70.30
14049;DHT22;7099;53.922;10.728;2023-09-19T17:57:48;19.20;70.40
14049;DHT22;7099;53.922;10.728;2023-09-19T18:01:57;19.20;70.40
14049;DHT22;7099;53.922;10.728;2023-09-19T18:06:03;19.20;70.40
14049;DHT22;7099;53.922;10.728;2023-09-19T18:10:09;19.30;70.70
14049;DHT22;7099;53.922;10.728;2023-09-19T18:14:14;19.30;70.80
14049;DHT22;7099;53.922;10.728;2023-09-19T18:18:22;19.30;70.60
14049;DHT22;7099;53.922;10.728;2023-09-19T18:22:29;19.30;70.90
14049;DHT22;7099;53.922;10.728;2023-09-19T18:26:38;19.20;70.60
14049;DHT22;7099;53.922;10.728;2023-09-19T18:30:44;19.20;70.70
14049;DHT22;7099;53.922;10.728;2023-09-19T18:34:49;19.20;70.80
14049;DHT22;7099;53.922;10.728;2023-09-19T18:38:55;19.20;70.80
14049;DHT22;7099;53.922;10.728;2023-09-19T18:43:01;19.20;70.90
14049;DHT22;7099;53.922;10.728;2023-09-19T18:47:08;19.20;70.80
14049;DHT22;7099;53.922;10.728;2023-09-19T18:51:14;19.20;70.50
14049;DHT22;7099;53.922;10.728;2023-09-19T18:55:22;19.20;70.80
14049;DHT22;7099;53.922;10.728;2023-09-19T18:59:28;19.30;70.70
14049;DHT22;7099;53.922;10.728;2023-09-19T19:03:35;19.30;70.60
14049;DHT22;7099;53.922;10.728;2023-09-19T19:07:40;19.30;70.60
14049;DHT22;7099;53.922;10.728;2023-09-19T19:11:46;19.20;70.70
14049;DHT22;7099;53.922;10.728;2023-09-19T19:15:52;19.20;70.60
14049;DHT22;7099;53.922;10.728;2023-09-19T19:19:58;19.30;70.70
14049;DHT22;7099;53.922;10.728;2023-09-19T19:24:05;19.30;70.70
14049;DHT22;7099;53.922;10.728;2023-09-19T19:28:10;19.30;70.90
14049;DHT22;7099;53.922;10.728;2023-09-19T19:32:16;19.30;71.10
14049;DHT22;7099;53.922;10.728;2023-09-19T19:36:22;19.30;70.70
14049;DHT22;7099;53.922;10.728;2023-09-19T19:40:28;19.30;70.80
14049;DHT22;7099;53.922;10.728;2023-09-19T19:44:33;19.20;70.80
14049;DHT22;7099;53.922;10.728;2023-09-19T19:48:39;19.20;70.80
14049;DHT22;7099;53.922;10.728;2023-09-19T19:52:45;19.20;71.00
14049;DHT22;7099;53.922;10.728;2023-09-19T19:56:58;19.30;71.40
14049;DHT22;7099;53.922;10.728;2023-09-19T20:01:04;19.30;71.40
14049;DHT22;7099;53.922;10.728;2023-09-19T20:05:11;19.20;71.20
14049;DHT22;7099;53.922;10.728;2023-09-19T20:09:17;19.20;71.30
14049;DHT22;7099;53.922;10.728;2023-09-19T20:13:24;19.20;71.30
14049;DHT22;7099;53.922;10.728;2023-09-19T20:17:30;19.20;71.60
14049;DHT22;7099;53.922;10.728;2023-09-19T20:21:36;19.20;71.60
14049;DHT22;7099;53.922;10.728;2023-09-19T20:25:46;19.20;71.80
14049;DHT22;7099;53.922;10.728;2023-09-19T20:29:52;19.20;71.80
14049;DHT22;7099;53.922;10.728;2023-09-19T20:33:58;19.20;72.00
14049;DHT22;7099;53.922;10.728;2023-09-19T20:38:05;19.20;72.20
14049;DHT22;7099;53.922;10.728;2023-09-19T20:42:11;19.20;72.30
14049;DHT22;7099;53.922;10.728;2023-09-19T20:46:17;19.20;72.40
14049;DHT22;7099;53.922;10.728;2023-09-19T20:50:22;19.20;72.60
14049;DHT22;7099;53.922;10.728;2023-09-19T20:54:28;19.20;72.60
14049;DHT22;7099;53.922;10.728;2023-09-19T20:58:37;19.20;72.80
14049;DHT22;7099;53.922;10.728;2023-09-19T21:02:44;19.20;73.10
14049;DHT22;7099;53.922;10.728;2023-09-19T21:06:53;19.20;73.20
14049;DHT22;7099;53.922;10.728;2023-09-19T21:11:14;19.20;73.10
14049;DHT22;7099;53.922;10.728;2023-09-19T21:15:23;19.20;73.20
14049;DHT22;7099;53.922;10.728;2023-09-19T21:19:29;19.10;73.20
14049;DHT22;7099;53.922;10.728;2023-09-19T21:23:36;19.10;73.40
14049;DHT22;7099;53.922;10.728;2023-09-19T21:27:43;19.10;73.60
14049;DHT22;7099;53.922;10.728;2023-09-19T21:31:49;19.10;73.70
14049;DHT22;7099;53.922;10.728;2023-09-19T21:35:56;19.10;73.90
14049;DHT22;7099;53.922;10.728;2023-09-19T21:40:02;19.10;73.90
14049;DHT22;7099;53.922;10.728;2023-09-19T21:44:09;19.10;74.10
14049;DHT22;7099;53.922;10.728;2023-09-19T21:48:16;19.10;74.20
14049;DHT22;7099;53.922;10.728;2023-09-19T21:52:22;19.00;74.50
14049;DHT22;7099;53.922;10.728;2023-09-19T21:56:27;19.00;74.70
14049;DHT22;7099;53.922;10.728;2023-09-19T22:00:33;19.00;74.90
14049;DHT22;7099;53.922;10.728;2023-09-19T22:04:50;19.00;75.10
14049;DHT22;7099;53.922;10.728;2023-09-19T22:08:56;19.00;75.30
14049;DHT22;7099;53.922;10.728;2023-09-19T22:13:02;19.00;75.50
14049;DHT22;7099;53.922;10.728;2023-09-19T22:17:07;19.00;75.60
14049;DHT22;7099;53.922;10.728;2023-09-19T22:21:14;19.00;75.60
14049;DHT22;7099;53.922;10.728;2023-09-19T22:25:38;19.00;75.80
14049;DHT22;7099;53.922;10.728;2023-09-19T22:29:44;18.90;76.20
14049;DHT22;7099;53.922;10.728;2023-09-19T22:33:51;18.90;76.40
14049;DHT22;7099;53.922;10.728;2023-09-19T22:37:57;19.30;75.60
14049;DHT22;7099;53.922;10.728;2023-09-19T22:42:19;19.50;75.20
14049;DHT22;7099;53.922;10.728;2023-09-19T22:46:28;19.60;75.00
14049;DHT22;7099;53.922;10.728;2023-09-19T22:50:34;19.70;75.00
14049;DHT22;7099;53.922;10.728;2023-09-19T22:54:49;19.70;75.40
14049;DHT22;7099;53.922;10.728;2023-09-19T22:58:55;19.70;75.80
14049;DHT22;7099;53.922;10.728;2023-09-19T23:03:01;19.70;75.80
14049;DHT22;7099;53.922;10.728;2023-09-19T23:07:10;19.60;76.20
14049;DHT22;7099;53.922;10.728;2023-09-19T23:11:17;19.60;76.60
14049;DHT22;7099;53.922;10.728;2023-09-19T23:15:27;19.70;77.00
14049;DHT22;7099;53.922;10.728;2023-09-19T23:19:33;19.60;77.40
14049;DHT22;7099;53.922;10.728;2023-09-19T23:23:38;19.50;77.80
14049;DHT22;7099;53.922;10.728;2023-09-19T23:27:46;19.50;78.20
14049;DHT22;7099;53.922;10.728;2023-09-19T23:31:55;19.40;79.00
14049;DHT22;7099;53.922;10.728;2023-09-19T23:36:01;19.40;79.60
14049;DHT22;7099;53.922;10.728;2023-09-19T23:40:07;19.40;80.60
14049;DHT22;7099;53.922;10.728;2023-09-19T23:44:15;19.30;81.00
14049;DHT22;7099;53.922;10.728;2023-09-19T23:48:20;19.20;81.30
14049;DHT22;7099;53.922;10.728;2023-09-19T23:52:29;19.20;81.50
14049;DHT22;7099;53.922;10.728;2023-09-19T23:56:35;19.10;81.50
